sensor_id;sensor_type;location;lat;lon;timestamp;P1;durP1;ratioP1;P2;durP2;ratioP2
65831;SDS011;52593;42.648;23.332;2024-02-26T00:02:05;16.95;;;7.18;;
65831;SDS011;52593;42.648;23.332;2024-02-26T00:04:32;16.80;;;7.28;;
65831;SDS011;52593;42.648;23.332;2024-02-26T00:06:57;17.00;;;7.20;;
65831;SDS011;52593;42.648;23.332;2024-02-26T00:09:23;18.10;;;7.60;;
65831;SDS011;52593;42.648;23.332;2024-02-26T00:11:49;19.90;;;7.80;;
65831;SDS011;52593;42.648;23.332;2024-02-26T00:14:14;25.03;;;8.73;;
65831;SDS011;52593;42.648;23.332;2024-02-26T00:16:40;27.48;;;11.02;;
65831;SDS011;52593;42.648;23.332;2024-02-26T00:19:06;24.42;;;8.77;;
65831;SDS011;52593;42.648;23.332;2024-02-26T00:21:32;19.27;;;8.27;;
65831;SDS011;52593;42.648;23.332;2024-02-26T00:23:57;18.77;;;8.00;;
65831;SDS011;52593;42.648;23.332;2024-02-26T00:26:23;21.65;;;8.63;;
65831;SDS011;52593;42.648;23.332;2024-02-26T00:28:48;26.37;;;9.40;;
65831;SDS011;52593;42.648;23.332;2024-02-26T00:31:14;24.10;;;10.40;;
65831;SDS011;52593;42.648;23.332;2024-02-26T00:33:39;22.97;;;9.30;;
65831;SDS011;52593;42.648;23.332;2024-02-26T00:36:05;19.48;;;7.68;;
65831;SDS011;52593;42.648;23.332;2024-02-26T00:38:31;20.13;;;8.30;;
65831;SDS011;52593;42.648;23.332;2024-02-26T00:40:56;20.17;;;8.15;;
65831;SDS011;52593;42.648;23.332;2024-02-26T00:43:22;17.37;;;7.27;;
65831;SDS011;52593;42.648;23.332;2024-02-26T00:45:47;21.60;;;8.27;;
65831;SDS011;52593;42.648;23.332;2024-02-26T00:48:13;20.07;;;9.03;;
65831;SDS011;52593;42.648;23.332;2024-02-26T00:50:39;20.63;;;8.00;;
65831;SDS011;52593;42.648;23.332;2024-02-26T00:53:05;20.67;;;8.60;;
65831;SDS011;52593;42.648;23.332;2024-02-26T00:55:30;20.48;;;7.95;;
65831;SDS011;52593;42.648;23.332;2024-02-26T00:57:56;18.30;;;8.10;;
65831;SDS011;52593;42.648;23.332;2024-02-26T01:00:22;19.67;;;8.67;;
65831;SDS011;52593;42.648;23.332;2024-02-26T01:02:47;18.38;;;8.20;;
65831;SDS011;52593;42.648;23.332;2024-02-26T01:05:13;21.73;;;8.83;;
65831;SDS011;52593;42.648;23.332;2024-02-26T01:07:39;21.73;;;9.15;;
65831;SDS011;52593;42.648;23.332;2024-02-26T01:10:05;24.33;;;9.10;;
65831;SDS011;52593;42.648;23.332;2024-02-26T01:12:32;23.20;;;9.65;;
65831;SDS011;52593;42.648;23.332;2024-02-26T01:14:59;22.40;;;9.10;;
65831;SDS011;52593;42.648;23.332;2024-02-26T01:17:24;21.27;;;9.47;;
65831;SDS011;52593;42.648;23.332;2024-02-26T01:19:50;22.83;;;9.65;;
65831;SDS011;52593;42.648;23.332;2024-02-26T01:22:15;24.03;;;9.63;;
65831;SDS011;52593;42.648;23.332;2024-02-26T01:24:41;24.17;;;10.47;;
65831;SDS011;52593;42.648;23.332;2024-02-26T01:27:06;21.55;;;9.63;;
65831;SDS011;52593;42.648;23.332;2024-02-26T01:29:35;23.70;;;10.15;;
65831;SDS011;52593;42.648;23.332;2024-02-26T01:32:01;23.20;;;9.93;;
65831;SDS011;52593;42.648;23.332;2024-02-26T01:34:26;25.17;;;10.87;;
65831;SDS011;52593;42.648;23.332;2024-02-26T01:36:52;25.17;;;10.05;;
65831;SDS011;52593;42.648;23.332;2024-02-26T01:39:18;19.90;;;9.07;;
65831;SDS011;52593;42.648;23.332;2024-02-26T01:41:43;24.03;;;9.83;;
65831;SDS011;52593;42.648;23.332;2024-02-26T01:44:09;22.42;;;9.23;;
65831;SDS011;52593;42.648;23.332;2024-02-26T01:46:38;21.45;;;9.90;;
65831;SDS011;52593;42.648;23.332;2024-02-26T01:49:04;24.20;;;10.17;;
65831;SDS011;52593;42.648;23.332;2024-02-26T01:51:30;22.40;;;10.13;;
65831;SDS011;52593;42.648;23.332;2024-02-26T01:53:57;23.27;;;10.20;;
65831;SDS011;52593;42.648;23.332;2024-02-26T01:56:24;23.58;;;10.82;;
65831;SDS011;52593;42.648;23.332;2024-02-26T01:58:55;23.50;;;9.32;;
65831;SDS011;52593;42.648;23.332;2024-02-26T02:01:21;21.23;;;8.80;;
65831;SDS011;52593;42.648;23.332;2024-02-26T02:03:50;19.97;;;8.57;;
65831;SDS011;52593;42.648;23.332;2024-02-26T02:06:16;19.25;;;8.88;;
65831;SDS011;52593;42.648;23.332;2024-02-26T02:08:42;21.73;;;10.35;;
65831;SDS011;52593;42.648;23.332;2024-02-26T02:11:08;19.42;;;9.27;;
65831;SDS011;52593;42.648;23.332;2024-02-26T02:13:36;19.63;;;8.87;;
65831;SDS011;52593;42.648;23.332;2024-02-26T02:16:02;23.27;;;9.40;;
65831;SDS011;52593;42.648;23.332;2024-02-26T02:18:28;21.65;;;8.85;;
65831;SDS011;52593;42.648;23.332;2024-02-26T02:20:54;20.13;;;9.30;;
65831;SDS011;52593;42.648;23.332;2024-02-26T02:23:21;19.90;;;8.93;;
65831;SDS011;52593;42.648;23.332;2024-02-26T02:25:46;20.27;;;9.40;;
65831;SDS011;52593;42.648;23.332;2024-02-26T02:28:13;22.23;;;9.15;;
65831;SDS011;52593;42.648;23.332;2024-02-26T02:30:38;23.43;;;9.47;;
65831;SDS011;52593;42.648;23.332;2024-02-26T02:33:04;22.13;;;9.40;;
65831;SDS011;52593;42.648;23.332;2024-02-26T02:35:30;22.75;;;9.93;;
65831;SDS011;52593;42.648;23.332;2024-02-26T02:37:56;21.87;;;9.40;;
65831;SDS011;52593;42.648;23.332;2024-02-26T02:40:22;22.13;;;9.85;;
65831;SDS011;52593;42.648;23.332;2024-02-26T02:42:47;21.10;;;9.07;;
65831;SDS011;52593;42.648;23.332;2024-02-26T02:45:13;21.17;;;9.37;;
65831;SDS011;52593;42.648;23.332;2024-02-26T02:47:38;20.98;;;8.98;;
65831;SDS011;52593;42.648;23.332;2024-02-26T02:50:04;21.13;;;9.13;;
65831;SDS011;52593;42.648;23.332;2024-02-26T02:52:30;22.92;;;9.02;;
65831;SDS011;52593;42.648;23.332;2024-02-26T02:54:56;22.73;;;9.13;;
65831;SDS011;52593;42.648;23.332;2024-02-26T02:57:21;20.80;;;9.05;;
65831;SDS011;52593;42.648;23.332;2024-02-26T02:59:47;23.67;;;9.20;;
65831;SDS011;52593;42.648;23.332;2024-02-26T03:02:12;22.02;;;10.20;;
65831;SDS011;52593;42.648;23.332;2024-02-26T03:04:38;23.07;;;10.13;;
65831;SDS011;52593;42.648;23.332;2024-02-26T03:07:03;22.50;;;9.57;;
65831;SDS011;52593;42.648;23.332;2024-02-26T03:09:29;22.83;;;10.02;;
65831;SDS011;52593;42.648;23.332;2024-02-26T03:11:54;20.30;;;9.17;;
65831;SDS011;52593;42.648;23.332;2024-02-26T03:14:20;25.30;;;11.23;;
65831;SDS011;52593;42.648;23.332;2024-02-26T03:16:45;31.70;;;12.55;;
65831;SDS011;52593;42.648;23.332;2024-02-26T03:19:13;43.63;;;19.97;;
65831;SDS011;52593;42.648;23.332;2024-02-26T03:21:40;39.53;;;15.95;;
65831;SDS011;52593;42.648;23.332;2024-02-26T03:24:05;33.40;;;14.77;;
65831;SDS011;52593;42.648;23.332;2024-02-26T03:26:34;36.80;;;14.85;;
65831;SDS011;52593;42.648;23.332;2024-02-26T03:29:00;30.97;;;13.17;;
65831;SDS011;52593;42.648;23.332;2024-02-26T03:31:27;26.90;;;13.15;;
65831;SDS011;52593;42.648;23.332;2024-02-26T03:33:53;27.07;;;12.97;;
65831;SDS011;52593;42.648;23.332;2024-02-26T03:36:18;24.93;;;10.60;;
65831;SDS011;52593;42.648;23.332;2024-02-26T03:38:44;23.03;;;10.73;;
65831;SDS011;52593;42.648;23.332;2024-02-26T03:41:09;25.85;;;11.13;;
65831;SDS011;52593;42.648;23.332;2024-02-26T03:43:35;26.47;;;11.00;;
65831;SDS011;52593;42.648;23.332;2024-02-26T03:46:00;24.23;;;10.52;;
65831;SDS011;52593;42.648;23.332;2024-02-26T03:48:26;22.90;;;10.53;;
65831;SDS011;52593;42.648;23.332;2024-02-26T03:50:51;23.43;;;10.13;;
65831;SDS011;52593;42.648;23.332;2024-02-26T03:53:17;26.30;;;9.93;;
65831;SDS011;52593;42.648;23.332;2024-02-26T03:55:43;24.27;;;10.27;;
65831;SDS011;52593;42.648;23.332;2024-02-26T03:58:08;24.93;;;10.03;;
65831;SDS011;52593;42.648;23.332;2024-02-26T04:00:34;24.42;;;11.05;;
65831;SDS011;52593;42.648;23.332;2024-02-26T04:02:59;26.07;;;11.57;;
65831;SDS011;52593;42.648;23.332;2024-02-26T04:05:25;25.10;;;10.83;;
65831;SDS011;52593;42.648;23.332;2024-02-26T04:07:50;23.95;;;10.70;;
65831;SDS011;52593;42.648;23.332;2024-02-26T04:10:16;29.97;;;12.10;;
65831;SDS011;52593;42.648;23.332;2024-02-26T04:12:42;28.92;;;12.05;;
65831;SDS011;52593;42.648;23.332;2024-02-26T04:15:08;27.97;;;12.70;;
65831;SDS011;52593;42.648;23.332;2024-02-26T04:17:34;26.48;;;11.68;;
65831;SDS011;52593;42.648;23.332;2024-02-26T04:19:59;25.20;;;10.37;;
65831;SDS011;52593;42.648;23.332;2024-02-26T04:22:25;24.67;;;10.45;;
65831;SDS011;52593;42.648;23.332;2024-02-26T04:24:50;26.37;;;10.23;;
65831;SDS011;52593;42.648;23.332;2024-02-26T04:27:16;24.33;;;10.57;;
65831;SDS011;52593;42.648;23.332;2024-02-26T04:29:41;27.17;;;11.10;;
65831;SDS011;52593;42.648;23.332;2024-02-26T04:32:07;25.50;;;10.50;;
65831;SDS011;52593;42.648;23.332;2024-02-26T04:34:32;20.43;;;10.00;;
65831;SDS011;52593;42.648;23.332;2024-02-26T04:36:58;24.73;;;10.30;;
65831;SDS011;52593;42.648;23.332;2024-02-26T04:39:23;23.42;;;9.90;;
65831;SDS011;52593;42.648;23.332;2024-02-26T04:41:49;24.00;;;9.37;;
65831;SDS011;52593;42.648;23.332;2024-02-26T04:44:14;21.57;;;9.77;;
65831;SDS011;52593;42.648;23.332;2024-02-26T04:46:40;26.45;;;9.75;;
65831;SDS011;52593;42.648;23.332;2024-02-26T04:49:05;26.00;;;10.23;;
65831;SDS011;52593;42.648;23.332;2024-02-26T04:51:31;24.30;;;10.33;;
65831;SDS011;52593;42.648;23.332;2024-02-26T04:53:56;25.98;;;11.15;;
65831;SDS011;52593;42.648;23.332;2024-02-26T04:56:22;24.00;;;10.60;;
65831;SDS011;52593;42.648;23.332;2024-02-26T04:58:47;25.03;;;10.97;;
65831;SDS011;52593;42.648;23.332;2024-02-26T05:01:13;22.73;;;10.88;;
65831;SDS011;52593;42.648;23.332;2024-02-26T05:03:38;23.73;;;10.27;;
65831;SDS011;52593;42.648;23.332;2024-02-26T05:06:04;25.77;;;11.40;;
65831;SDS011;52593;42.648;23.332;2024-02-26T05:08:30;27.83;;;11.70;;
65831;SDS011;52593;42.648;23.332;2024-02-26T05:10:56;25.17;;;10.90;;
65831;SDS011;52593;42.648;23.332;2024-02-26T05:13:21;26.20;;;10.97;;
65831;SDS011;52593;42.648;23.332;2024-02-26T05:15:47;27.88;;;11.73;;
65831;SDS011;52593;42.648;23.332;2024-02-26T05:18:14;24.77;;;10.40;;
65831;SDS011;52593;42.648;23.332;2024-02-26T05:20:40;26.35;;;11.68;;
65831;SDS011;52593;42.648;23.332;2024-02-26T05:23:06;29.00;;;11.52;;
65831;SDS011;52593;42.648;23.332;2024-02-26T05:25:31;26.17;;;11.23;;
65831;SDS011;52593;42.648;23.332;2024-02-26T05:27:57;27.00;;;11.60;;
65831;SDS011;52593;42.648;23.332;2024-02-26T05:30:22;28.03;;;12.13;;
65831;SDS011;52593;42.648;23.332;2024-02-26T05:32:48;25.07;;;11.93;;
65831;SDS011;52593;42.648;23.332;2024-02-26T05:35:13;23.97;;;10.63;;
65831;SDS011;52593;42.648;23.332;2024-02-26T05:37:40;25.52;;;11.55;;
65831;SDS011;52593;42.648;23.332;2024-02-26T05:40:05;33.40;;;12.70;;
65831;SDS011;52593;42.648;23.332;2024-02-26T05:42:31;78.18;;;23.23;;
65831;SDS011;52593;42.648;23.332;2024-02-26T05:44:57;85.63;;;25.50;;
65831;SDS011;52593;42.648;23.332;2024-02-26T05:47:22;73.30;;;19.83;;
65831;SDS011;52593;42.648;23.332;2024-02-26T05:49:48;28.40;;;11.67;;
65831;SDS011;52593;42.648;23.332;2024-02-26T05:52:14;28.87;;;11.23;;
65831;SDS011;52593;42.648;23.332;2024-02-26T05:54:40;23.08;;;10.73;;
65831;SDS011;52593;42.648;23.332;2024-02-26T05:57:05;27.10;;;10.50;;
65831;SDS011;52593;42.648;23.332;2024-02-26T05:59:30;24.20;;;11.20;;
65831;SDS011;52593;42.648;23.332;2024-02-26T06:01:56;30.47;;;11.90;;
65831;SDS011;52593;42.648;23.332;2024-02-26T06:04:21;28.40;;;11.88;;
65831;SDS011;52593;42.648;23.332;2024-02-26T06:06:47;125.83;;;27.30;;
65831;SDS011;52593;42.648;23.332;2024-02-26T06:09:12;231.00;;;40.93;;
65831;SDS011;52593;42.648;23.332;2024-02-26T06:11:38;80.30;;;21.48;;
65831;SDS011;52593;42.648;23.332;2024-02-26T06:14:04;34.30;;;13.63;;
65831;SDS011;52593;42.648;23.332;2024-02-26T06:16:30;32.35;;;12.85;;
65831;SDS011;52593;42.648;23.332;2024-02-26T06:18:55;62.45;;;18.08;;
65831;SDS011;52593;42.648;23.332;2024-02-26T06:21:21;100.53;;;23.27;;
65831;SDS011;52593;42.648;23.332;2024-02-26T06:23:47;77.15;;;19.98;;
65831;SDS011;52593;42.648;23.332;2024-02-26T06:26:13;73.77;;;20.23;;
65831;SDS011;52593;42.648;23.332;2024-02-26T06:28:38;46.45;;;15.35;;
65831;SDS011;52593;42.648;23.332;2024-02-26T06:31:05;33.87;;;13.67;;
65831;SDS011;52593;42.648;23.332;2024-02-26T06:33:31;26.83;;;11.82;;
65831;SDS011;52593;42.648;23.332;2024-02-26T06:35:57;29.47;;;12.20;;
65831;SDS011;52593;42.648;23.332;2024-02-26T06:38:22;25.25;;;11.38;;
65831;SDS011;52593;42.648;23.332;2024-02-26T06:40:48;26.63;;;12.53;;
65831;SDS011;52593;42.648;23.332;2024-02-26T06:43:14;30.58;;;14.20;;
65831;SDS011;52593;42.648;23.332;2024-02-26T06:45:39;32.67;;;13.57;;
65831;SDS011;52593;42.648;23.332;2024-02-26T06:48:05;23.73;;;10.03;;
65831;SDS011;52593;42.648;23.332;2024-02-26T06:50:31;23.63;;;8.45;;
65831;SDS011;52593;42.648;23.332;2024-02-26T06:52:56;22.47;;;9.23;;
65831;SDS011;52593;42.648;23.332;2024-02-26T06:55:21;20.73;;;9.02;;
65831;SDS011;52593;42.648;23.332;2024-02-26T06:57:47;19.57;;;9.80;;
65831;SDS011;52593;42.648;23.332;2024-02-26T07:00:13;24.17;;;8.47;;
65831;SDS011;52593;42.648;23.332;2024-02-26T07:02:41;19.70;;;8.43;;
65831;SDS011;52593;42.648;23.332;2024-02-26T07:05:07;22.80;;;8.93;;
65831;SDS011;52593;42.648;23.332;2024-02-26T07:07:33;21.52;;;9.38;;
65831;SDS011;52593;42.648;23.332;2024-02-26T07:09:58;20.27;;;8.67;;
65831;SDS011;52593;42.648;23.332;2024-02-26T07:12:24;19.93;;;9.10;;
65831;SDS011;52593;42.648;23.332;2024-02-26T07:14:49;22.37;;;8.30;;
65831;SDS011;52593;42.648;23.332;2024-02-26T07:17:15;16.67;;;8.00;;
65831;SDS011;52593;42.648;23.332;2024-02-26T07:19:41;22.65;;;8.18;;
65831;SDS011;52593;42.648;23.332;2024-02-26T07:22:07;18.95;;;8.50;;
65831;SDS011;52593;42.648;23.332;2024-02-26T07:24:33;19.10;;;8.93;;
65831;SDS011;52593;42.648;23.332;2024-02-26T07:26:58;19.37;;;7.93;;
65831;SDS011;52593;42.648;23.332;2024-02-26T07:29:24;20.10;;;7.63;;
65831;SDS011;52593;42.648;23.332;2024-02-26T07:31:49;18.63;;;7.87;;
65831;SDS011;52593;42.648;23.332;2024-02-26T07:34:15;16.53;;;7.83;;
65831;SDS011;52593;42.648;23.332;2024-02-26T07:36:41;18.50;;;7.30;;
65831;SDS011;52593;42.648;23.332;2024-02-26T07:39:06;16.43;;;7.50;;
65831;SDS011;52593;42.648;23.332;2024-02-26T07:41:31;18.23;;;7.13;;
65831;SDS011;52593;42.648;23.332;2024-02-26T07:43:57;18.70;;;7.40;;
65831;SDS011;52593;42.648;23.332;2024-02-26T07:46:23;16.27;;;6.13;;
65831;SDS011;52593;42.648;23.332;2024-02-26T07:48:48;17.80;;;6.53;;
65831;SDS011;52593;42.648;23.332;2024-02-26T07:51:14;16.30;;;6.22;;
65831;SDS011;52593;42.648;23.332;2024-02-26T07:53:40;13.40;;;6.47;;
65831;SDS011;52593;42.648;23.332;2024-02-26T07:56:06;19.17;;;6.10;;
65831;SDS011;52593;42.648;23.332;2024-02-26T07:58:34;14.93;;;6.40;;
65831;SDS011;52593;42.648;23.332;2024-02-26T08:01:00;15.75;;;6.28;;
65831;SDS011;52593;42.648;23.332;2024-02-26T08:03:26;15.98;;;6.05;;
65831;SDS011;52593;42.648;23.332;2024-02-26T08:05:51;12.43;;;5.97;;
65831;SDS011;52593;42.648;23.332;2024-02-26T08:08:17;14.10;;;5.60;;
65831;SDS011;52593;42.648;23.332;2024-02-26T08:10:43;12.33;;;5.37;;
65831;SDS011;52593;42.648;23.332;2024-02-26T08:13:08;14.27;;;4.93;;
65831;SDS011;52593;42.648;23.332;2024-02-26T08:15:37;13.60;;;6.00;;
65831;SDS011;52593;42.648;23.332;2024-02-26T08:18:03;13.60;;;5.57;;
65831;SDS011;52593;42.648;23.332;2024-02-26T08:20:32;11.32;;;4.60;;
65831;SDS011;52593;42.648;23.332;2024-02-26T08:22:57;9.80;;;4.97;;
65831;SDS011;52593;42.648;23.332;2024-02-26T08:25:23;10.90;;;4.60;;
65831;SDS011;52593;42.648;23.332;2024-02-26T08:27:49;11.52;;;4.95;;
65831;SDS011;52593;42.648;23.332;2024-02-26T08:30:15;11.97;;;4.40;;
65831;SDS011;52593;42.648;23.332;2024-02-26T08:32:45;12.27;;;5.03;;
65831;SDS011;52593;42.648;23.332;2024-02-26T08:35:11;14.65;;;5.45;;
65831;SDS011;52593;42.648;23.332;2024-02-26T08:37:36;11.43;;;4.37;;
65831;SDS011;52593;42.648;23.332;2024-02-26T08:40:02;13.20;;;4.57;;
65831;SDS011;52593;42.648;23.332;2024-02-26T08:42:29;19.75;;;5.35;;
65831;SDS011;52593;42.648;23.332;2024-02-26T08:44:55;15.02;;;4.53;;
65831;SDS011;52593;42.648;23.332;2024-02-26T08:47:20;12.13;;;4.63;;
65831;SDS011;52593;42.648;23.332;2024-02-26T08:49:46;10.97;;;4.20;;
65831;SDS011;52593;42.648;23.332;2024-02-26T08:52:11;12.38;;;4.20;;
65831;SDS011;52593;42.648;23.332;2024-02-26T08:54:37;10.60;;;4.40;;
65831;SDS011;52593;42.648;23.332;2024-02-26T08:57:03;12.83;;;4.53;;
65831;SDS011;52593;42.648;23.332;2024-02-26T08:59:29;13.38;;;4.28;;
65831;SDS011;52593;42.648;23.332;2024-02-26T09:01:54;12.20;;;4.77;;
65831;SDS011;52593;42.648;23.332;2024-02-26T09:04:20;12.57;;;4.70;;
65831;SDS011;52593;42.648;23.332;2024-02-26T09:06:45;11.55;;;4.45;;
65831;SDS011;52593;42.648;23.332;2024-02-26T09:09:11;11.25;;;4.38;;
65831;SDS011;52593;42.648;23.332;2024-02-26T09:11:37;10.87;;;4.43;;
65831;SDS011;52593;42.648;23.332;2024-02-26T09:14:02;11.83;;;4.23;;
65831;SDS011;52593;42.648;23.332;2024-02-26T09:16:28;11.63;;;4.75;;
65831;SDS011;52593;42.648;23.332;2024-02-26T09:18:54;9.02;;;4.10;;
65831;SDS011;52593;42.648;23.332;2024-02-26T09:21:20;9.80;;;4.03;;
65831;SDS011;52593;42.648;23.332;2024-02-26T09:23:51;12.75;;;4.50;;
65831;SDS011;52593;42.648;23.332;2024-02-26T09:26:17;8.93;;;4.25;;
65831;SDS011;52593;42.648;23.332;2024-02-26T09:28:43;11.27;;;4.20;;
65831;SDS011;52593;42.648;23.332;2024-02-26T09:31:09;11.27;;;4.32;;
65831;SDS011;52593;42.648;23.332;2024-02-26T09:33:35;10.00;;;3.97;;
65831;SDS011;52593;42.648;23.332;2024-02-26T09:36:00;9.80;;;4.28;;
65831;SDS011;52593;42.648;23.332;2024-02-26T09:38:29;13.60;;;4.28;;
65831;SDS011;52593;42.648;23.332;2024-02-26T09:40:56;10.87;;;4.00;;
65831;SDS011;52593;42.648;23.332;2024-02-26T09:43:22;11.95;;;4.50;;
65831;SDS011;52593;42.648;23.332;2024-02-26T09:45:51;9.55;;;4.47;;
65831;SDS011;52593;42.648;23.332;2024-02-26T09:48:20;9.05;;;4.45;;
65831;SDS011;52593;42.648;23.332;2024-02-26T09:50:48;11.40;;;4.40;;
65831;SDS011;52593;42.648;23.332;2024-02-26T09:53:14;12.30;;;4.67;;
65831;SDS011;52593;42.648;23.332;2024-02-26T09:55:40;10.02;;;4.70;;
65831;SDS011;52593;42.648;23.332;2024-02-26T09:58:06;17.30;;;4.93;;
65831;SDS011;52593;42.648;23.332;2024-02-26T10:00:32;11.93;;;4.60;;
65831;SDS011;52593;42.648;23.332;2024-02-26T10:03:04;11.18;;;4.85;;
65831;SDS011;52593;42.648;23.332;2024-02-26T10:05:34;13.80;;;4.95;;
65831;SDS011;52593;42.648;23.332;2024-02-26T10:08:02;9.37;;;4.40;;
65831;SDS011;52593;42.648;23.332;2024-02-26T10:10:29;10.52;;;4.22;;
65831;SDS011;52593;42.648;23.332;2024-02-26T10:12:58;9.65;;;4.47;;
65831;SDS011;52593;42.648;23.332;2024-02-26T10:15:24;13.00;;;4.70;;
65831;SDS011;52593;42.648;23.332;2024-02-26T10:17:50;10.15;;;5.03;;
65831;SDS011;52593;42.648;23.332;2024-02-26T10:20:17;9.80;;;4.37;;
65831;SDS011;52593;42.648;23.332;2024-02-26T10:22:43;11.52;;;3.95;;
65831;SDS011;52593;42.648;23.332;2024-02-26T10:25:12;9.23;;;4.60;;
65831;SDS011;52593;42.648;23.332;2024-02-26T10:27:37;11.40;;;4.87;;
65831;SDS011;52593;42.648;23.332;2024-02-26T10:30:16;9.88;;;4.90;;
65831;SDS011;52593;42.648;23.332;2024-02-26T10:32:46;11.65;;;4.70;;
65831;SDS011;52593;42.648;23.332;2024-02-26T10:35:12;12.43;;;4.70;;
65831;SDS011;52593;42.648;23.332;2024-02-26T10:37:42;10.35;;;4.53;;
65831;SDS011;52593;42.648;23.332;2024-02-26T10:40:14;11.82;;;4.40;;
65831;SDS011;52593;42.648;23.332;2024-02-26T10:42:40;10.60;;;4.50;;
65831;SDS011;52593;42.648;23.332;2024-02-26T10:45:07;8.73;;;4.35;;
65831;SDS011;52593;42.648;23.332;2024-02-26T10:47:37;8.57;;;4.27;;
65831;SDS011;52593;42.648;23.332;2024-02-26T10:50:04;10.15;;;4.38;;
65831;SDS011;52593;42.648;23.332;2024-02-26T10:52:34;9.90;;;4.70;;
65831;SDS011;52593;42.648;23.332;2024-02-26T10:55:04;10.88;;;4.50;;
65831;SDS011;52593;42.648;23.332;2024-02-26T10:57:35;11.23;;;4.80;;
65831;SDS011;52593;42.648;23.332;2024-02-26T11:00:04;10.23;;;4.77;;
65831;SDS011;52593;42.648;23.332;2024-02-26T11:02:48;10.50;;;4.80;;
65831;SDS011;52593;42.648;23.332;2024-02-26T11:05:17;11.45;;;4.60;;
65831;SDS011;52593;42.648;23.332;2024-02-26T11:07:44;8.40;;;4.50;;
65831;SDS011;52593;42.648;23.332;2024-02-26T11:10:10;9.73;;;4.60;;
65831;SDS011;52593;42.648;23.332;2024-02-26T11:12:37;11.65;;;4.32;;
65831;SDS011;52593;42.648;23.332;2024-02-26T11:15:04;9.85;;;4.40;;
65831;SDS011;52593;42.648;23.332;2024-02-26T11:17:30;11.50;;;5.05;;
65831;SDS011;52593;42.648;23.332;2024-02-26T11:19:58;8.47;;;4.40;;
65831;SDS011;52593;42.648;23.332;2024-02-26T11:22:24;9.95;;;4.40;;
65831;SDS011;52593;42.648;23.332;2024-02-26T11:24:54;11.75;;;4.60;;
65831;SDS011;52593;42.648;23.332;2024-02-26T11:27:32;8.90;;;4.18;;
65831;SDS011;52593;42.648;23.332;2024-02-26T11:30:04;10.25;;;4.30;;
65831;SDS011;52593;42.648;23.332;2024-02-26T11:32:33;11.27;;;4.27;;
65831;SDS011;52593;42.648;23.332;2024-02-26T11:35:00;12.02;;;4.63;;
65831;SDS011;52593;42.648;23.332;2024-02-26T11:37:26;14.10;;;4.80;;
65831;SDS011;52593;42.648;23.332;2024-02-26T11:39:52;9.98;;;4.60;;
65831;SDS011;52593;42.648;23.332;2024-02-26T11:42:17;12.43;;;4.77;;
65831;SDS011;52593;42.648;23.332;2024-02-26T11:44:49;11.68;;;4.07;;
65831;SDS011;52593;42.648;23.332;2024-02-26T11:47:19;9.32;;;4.35;;
65831;SDS011;52593;42.648;23.332;2024-02-26T11:49:46;12.02;;;4.60;;
65831;SDS011;52593;42.648;23.332;2024-02-26T11:52:12;9.73;;;4.27;;
65831;SDS011;52593;42.648;23.332;2024-02-26T11:54:39;10.57;;;4.35;;
65831;SDS011;52593;42.648;23.332;2024-02-26T11:59:54;8.13;;;3.72;;
65831;SDS011;52593;42.648;23.332;2024-02-26T12:05:08;7.90;;;3.17;;
65831;SDS011;52593;42.648;23.332;2024-02-26T12:07:44;10.32;;;3.83;;
65831;SDS011;52593;42.648;23.332;2024-02-26T12:12:54;10.15;;;3.17;;
65831;SDS011;52593;42.648;23.332;2024-02-26T12:15:23;8.40;;;3.50;;
65831;SDS011;52593;42.648;23.332;2024-02-26T12:17:49;11.57;;;3.87;;
65831;SDS011;52593;42.648;23.332;2024-02-26T12:20:15;10.27;;;4.20;;
65831;SDS011;52593;42.648;23.332;2024-02-26T12:22:44;8.02;;;3.78;;
65831;SDS011;52593;42.648;23.332;2024-02-26T12:25:14;10.23;;;3.92;;
65831;SDS011;52593;42.648;23.332;2024-02-26T12:27:39;9.60;;;3.60;;
65831;SDS011;52593;42.648;23.332;2024-02-26T12:30:05;10.30;;;3.27;;
65831;SDS011;52593;42.648;23.332;2024-02-26T12:32:31;7.30;;;3.30;;
65831;SDS011;52593;42.648;23.332;2024-02-26T12:34:57;8.55;;;3.33;;
65831;SDS011;52593;42.648;23.332;2024-02-26T12:37:24;8.02;;;3.30;;
65831;SDS011;52593;42.648;23.332;2024-02-26T12:39:50;6.97;;;3.10;;
65831;SDS011;52593;42.648;23.332;2024-02-26T12:42:16;9.00;;;3.43;;
65831;SDS011;52593;42.648;23.332;2024-02-26T12:44:41;11.37;;;3.40;;
65831;SDS011;52593;42.648;23.332;2024-02-26T12:47:07;8.00;;;3.28;;
65831;SDS011;52593;42.648;23.332;2024-02-26T12:49:32;7.27;;;3.27;;
65831;SDS011;52593;42.648;23.332;2024-02-26T12:51:58;7.22;;;2.97;;
65831;SDS011;52593;42.648;23.332;2024-02-26T12:54:30;7.28;;;3.10;;
65831;SDS011;52593;42.648;23.332;2024-02-26T12:57:00;9.63;;;2.97;;
65831;SDS011;52593;42.648;23.332;2024-02-26T12:59:27;7.57;;;2.88;;
65831;SDS011;52593;42.648;23.332;2024-02-26T13:01:53;7.85;;;3.10;;
65831;SDS011;52593;42.648;23.332;2024-02-26T13:04:19;8.17;;;3.87;;
65831;SDS011;52593;42.648;23.332;2024-02-26T13:06:44;9.77;;;3.10;;
65831;SDS011;52593;42.648;23.332;2024-02-26T13:09:12;10.70;;;5.93;;
65831;SDS011;52593;42.648;23.332;2024-02-26T13:11:42;10.82;;;3.30;;
65831;SDS011;52593;42.648;23.332;2024-02-26T13:14:07;13.30;;;4.43;;
65831;SDS011;52593;42.648;23.332;2024-02-26T13:16:33;9.38;;;3.95;;
65831;SDS011;52593;42.648;23.332;2024-02-26T13:19:11;10.27;;;3.27;;
65831;SDS011;52593;42.648;23.332;2024-02-26T13:21:37;11.90;;;5.00;;
65831;SDS011;52593;42.648;23.332;2024-02-26T13:24:02;8.05;;;3.60;;
65831;SDS011;52593;42.648;23.332;2024-02-26T13:26:28;8.23;;;3.50;;
65831;SDS011;52593;42.648;23.332;2024-02-26T13:29:00;10.53;;;3.77;;
65831;SDS011;52593;42.648;23.332;2024-02-26T13:31:28;10.00;;;3.87;;
65831;SDS011;52593;42.648;23.332;2024-02-26T13:33:54;8.93;;;4.53;;
65831;SDS011;52593;42.648;23.332;2024-02-26T13:36:21;9.13;;;4.30;;
65831;SDS011;52593;42.648;23.332;2024-02-26T13:38:53;10.93;;;3.40;;
65831;SDS011;52593;42.648;23.332;2024-02-26T13:41:20;8.18;;;3.60;;
65831;SDS011;52593;42.648;23.332;2024-02-26T13:43:46;8.73;;;3.55;;
65831;SDS011;52593;42.648;23.332;2024-02-26T13:46:12;15.73;;;5.40;;
65831;SDS011;52593;42.648;23.332;2024-02-26T13:48:40;8.10;;;3.20;;
65831;SDS011;52593;42.648;23.332;2024-02-26T13:51:06;9.45;;;3.28;;
65831;SDS011;52593;42.648;23.332;2024-02-26T13:53:31;9.48;;;3.70;;
65831;SDS011;52593;42.648;23.332;2024-02-26T13:55:57;12.60;;;3.50;;
65831;SDS011;52593;42.648;23.332;2024-02-26T13:58:24;7.70;;;3.03;;
65831;SDS011;52593;42.648;23.332;2024-02-26T14:00:50;9.95;;;4.20;;
65831;SDS011;52593;42.648;23.332;2024-02-26T14:03:15;12.63;;;3.30;;
65831;SDS011;52593;42.648;23.332;2024-02-26T14:05:41;11.17;;;3.27;;
65831;SDS011;52593;42.648;23.332;2024-02-26T14:08:07;9.80;;;3.95;;
65831;SDS011;52593;42.648;23.332;2024-02-26T14:10:33;11.02;;;3.30;;
65831;SDS011;52593;42.648;23.332;2024-02-26T14:12:59;8.37;;;3.20;;
65831;SDS011;52593;42.648;23.332;2024-02-26T14:15:25;11.40;;;4.53;;
65831;SDS011;52593;42.648;23.332;2024-02-26T14:17:53;12.07;;;3.50;;
65831;SDS011;52593;42.648;23.332;2024-02-26T14:20:22;7.28;;;2.78;;
65831;SDS011;52593;42.648;23.332;2024-02-26T14:22:52;7.55;;;3.35;;
65831;SDS011;52593;42.648;23.332;2024-02-26T14:25:18;7.90;;;2.93;;